Decoded Metar for KNOG (ORANGE GROVE in TX, USA) (IATA:NOG) | Meteo·Mobile Aviation Weather
aviador You're here:

KNOG Decoded Metar

ORANGE GROVE in TX, USA
Report Time2018-08-22 04:56:00
UTC Time2018-08-22 05:37:41
Flight Rules vfr VFR
Wind180° at 06 kt
W.Decomp.*RWY 19: 5.8 kt HW 1.6 kt LCW
RWY 13: 4.2 kt HW 4.2 kt RCW
W.Rank180° ranks 5
Current wind is below 180° avg. (9.6)
Visibility9999 m
Phenomena:N/A
Clouds:N/A
Expected CloudBase > 1,200 ft AGL from Temp-Dew spread
CeilingNone
Temp26°C (ISA +12)
Dew Point23°C (84% RH)
QNH1019 hPa
Density Alt1,755 ft
Elevation256 ft
Report Wrong Elevation
Raw Report
KNOG 220456Z AUTO 18006KT 10SM CLR 26/23 A3008 RMK AO2 SLP165
T02560233 PNO $=

Extra information for KNOG:More info

Metar Taf Metar & Taf Last 4 Metars F.Rules Stats Wind Profile Meteogram Temp Stats Airport Information Weather charts Add Link Nearby VenuesMetar ALERT Operation Metar Decoded Social comments

AIRNAV info for KNOG